sensor_id;sensor_type;location;lat;lon;timestamp;temperature;humidity
33831;DHT22;20137;48.834;8.732;2024-03-08T00:00:14;1.90;99.90
33831;DHT22;20137;48.834;8.732;2024-03-08T00:02:41;1.90;99.90
33831;DHT22;20137;48.834;8.732;2024-03-08T00:05:08;1.90;99.90
33831;DHT22;20137;48.834;8.732;2024-03-08T00:07:38;1.90;99.90
33831;DHT22;20137;48.834;8.732;2024-03-08T00:10:08;1.80;99.90
33831;DHT22;20137;48.834;8.732;2024-03-08T00:12:37;1.80;99.90
33831;DHT22;20137;48.834;8.732;2024-03-08T00:15:03;1.90;99.90
33831;DHT22;20137;48.834;8.732;2024-03-08T00:17:29;1.70;99.90
33831;DHT22;20137;48.834;8.732;2024-03-08T00:19:55;1.70;99.90
33831;DHT22;20137;48.834;8.732;2024-03-08T00:22:20;1.70;99.90
33831;DHT22;20137;48.834;8.732;2024-03-08T00:24:47;1.60;99.90
33831;DHT22;20137;48.834;8.732;2024-03-08T00:27:15;1.60;99.90
33831;DHT22;20137;48.834;8.732;2024-03-08T00:29:41;1.60;99.90
33831;DHT22;20137;48.834;8.732;2024-03-08T00:32:07;1.70;99.90
33831;DHT22;20137;48.834;8.732;2024-03-08T00:34:36;1.60;99.90
33831;DHT22;20137;48.834;8.732;2024-03-08T00:37:03;1.60;99.90
33831;DHT22;20137;48.834;8.732;2024-03-08T00:39:29;1.60;99.90
33831;DHT22;20137;48.834;8.732;2024-03-08T00:41:55;1.70;99.90
33831;DHT22;20137;48.834;8.732;2024-03-08T00:44:20;1.50;99.90
33831;DHT22;20137;48.834;8.732;2024-03-08T00:46:46;1.50;99.90
33831;DHT22;20137;48.834;8.732;2024-03-08T00:49:12;1.50;99.90
33831;DHT22;20137;48.834;8.732;2024-03-08T00:51:38;1.50;99.90
33831;DHT22;20137;48.834;8.732;2024-03-08T00:54:03;1.40;99.90
33831;DHT22;20137;48.834;8.732;2024-03-08T00:56:29;1.30;99.90
33831;DHT22;20137;48.834;8.732;2024-03-08T00:58:55;1.30;99.90
33831;DHT22;20137;48.834;8.732;2024-03-08T01:01:21;1.30;99.90
33831;DHT22;20137;48.834;8.732;2024-03-08T01:03:46;1.20;99.90
33831;DHT22;20137;48.834;8.732;2024-03-08T01:06:12;1.20;99.90
33831;DHT22;20137;48.834;8.732;2024-03-08T01:08:38;1.20;99.90
33831;DHT22;20137;48.834;8.732;2024-03-08T01:11:06;1.20;99.90
33831;DHT22;20137;48.834;8.732;2024-03-08T01:13:32;1.20;99.90
33831;DHT22;20137;48.834;8.732;2024-03-08T01:15:57;1.30;99.90
33831;DHT22;20137;48.834;8.732;2024-03-08T01:18:23;1.20;99.90
33831;DHT22;20137;48.834;8.732;2024-03-08T01:20:49;1.20;99.90
33831;DHT22;20137;48.834;8.732;2024-03-08T01:23:14;1.20;99.90
33831;DHT22;20137;48.834;8.732;2024-03-08T01:25:40;1.10;99.90
33831;DHT22;20137;48.834;8.732;2024-03-08T01:28:07;1.20;99.90
33831;DHT22;20137;48.834;8.732;2024-03-08T01:30:32;1.10;99.90
33831;DHT22;20137;48.834;8.732;2024-03-08T01:33:00;1.30;99.90
33831;DHT22;20137;48.834;8.732;2024-03-08T01:35:25;1.10;99.90
33831;DHT22;20137;48.834;8.732;2024-03-08T01:37:52;1.10;99.90
33831;DHT22;20137;48.834;8.732;2024-03-08T01:40:18;1.10;99.90
33831;DHT22;20137;48.834;8.732;2024-03-08T01:42:43;1.10;99.90
33831;DHT22;20137;48.834;8.732;2024-03-08T01:45:10;1.10;99.90
33831;DHT22;20137;48.834;8.732;2024-03-08T01:47:36;1.10;99.90
33831;DHT22;20137;48.834;8.732;2024-03-08T01:50:02;1.10;99.90
33831;DHT22;20137;48.834;8.732;2024-03-08T01:52:32;1.10;99.90
33831;DHT22;20137;48.834;8.732;2024-03-08T01:54:59;1.10;99.90
33831;DHT22;20137;48.834;8.732;2024-03-08T01:57:30;1.00;99.90
33831;DHT22;20137;48.834;8.732;2024-03-08T01:59:57;1.00;99.90
33831;DHT22;20137;48.834;8.732;2024-03-08T02:02:22;1.00;99.90
33831;DHT22;20137;48.834;8.732;2024-03-08T02:04:48;0.90;99.90
33831;DHT22;20137;48.834;8.732;2024-03-08T02:07:18;0.90;99.90
33831;DHT22;20137;48.834;8.732;2024-03-08T02:09:43;0.80;99.90
33831;DHT22;20137;48.834;8.732;2024-03-08T02:12:10;0.80;99.90
33831;DHT22;20137;48.834;8.732;2024-03-08T02:14:35;0.80;99.90
33831;DHT22;20137;48.834;8.732;2024-03-08T02:17:02;0.80;99.90
33831;DHT22;20137;48.834;8.732;2024-03-08T02:19:28;0.80;99.90
33831;DHT22;20137;48.834;8.732;2024-03-08T02:21:53;0.70;99.90
33831;DHT22;20137;48.834;8.732;2024-03-08T02:24:19;0.70;99.90
33831;DHT22;20137;48.834;8.732;2024-03-08T02:26:45;0.70;99.90
33831;DHT22;20137;48.834;8.732;2024-03-08T02:29:11;0.60;99.90
33831;DHT22;20137;48.834;8.732;2024-03-08T02:31:37;0.70;99.90
33831;DHT22;20137;48.834;8.732;2024-03-08T02:34:04;0.60;99.90
33831;DHT22;20137;48.834;8.732;2024-03-08T02:36:30;0.60;99.90
33831;DHT22;20137;48.834;8.732;2024-03-08T02:39:01;0.60;99.90
33831;DHT22;20137;48.834;8.732;2024-03-08T02:41:27;0.60;99.90
33831;DHT22;20137;48.834;8.732;2024-03-08T02:43:53;0.60;99.90
33831;DHT22;20137;48.834;8.732;2024-03-08T02:46:18;0.60;99.90
33831;DHT22;20137;48.834;8.732;2024-03-08T02:48:44;0.60;99.90
33831;DHT22;20137;48.834;8.732;2024-03-08T02:51:10;0.60;99.90
33831;DHT22;20137;48.834;8.732;2024-03-08T02:53:36;0.50;99.90
33831;DHT22;20137;48.834;8.732;2024-03-08T02:56:03;0.60;99.90
33831;DHT22;20137;48.834;8.732;2024-03-08T02:58:30;0.50;99.90
33831;DHT22;20137;48.834;8.732;2024-03-08T03:00:56;0.60;99.90
33831;DHT22;20137;48.834;8.732;2024-03-08T03:03:22;0.50;99.90
33831;DHT22;20137;48.834;8.732;2024-03-08T03:05:48;0.40;99.90
33831;DHT22;20137;48.834;8.732;2024-03-08T03:08:15;0.40;99.90
33831;DHT22;20137;48.834;8.732;2024-03-08T03:10:42;0.40;99.90
33831;DHT22;20137;48.834;8.732;2024-03-08T03:13:08;0.40;99.90
33831;DHT22;20137;48.834;8.732;2024-03-08T03:15:33;0.30;99.90
33831;DHT22;20137;48.834;8.732;2024-03-08T03:17:59;0.30;99.90
33831;DHT22;20137;48.834;8.732;2024-03-08T03:20:25;0.30;99.90
33831;DHT22;20137;48.834;8.732;2024-03-08T03:23:00;0.20;99.90
33831;DHT22;20137;48.834;8.732;2024-03-08T03:25:29;0.20;99.90
33831;DHT22;20137;48.834;8.732;2024-03-08T03:27:59;0.10;99.90
33831;DHT22;20137;48.834;8.732;2024-03-08T03:30:25;0.10;99.90
33831;DHT22;20137;48.834;8.732;2024-03-08T03:33:01;0.30;99.90
33831;DHT22;20137;48.834;8.732;2024-03-08T03:35:30;0.20;99.90
33831;DHT22;20137;48.834;8.732;2024-03-08T03:37:56;0.10;99.90
33831;DHT22;20137;48.834;8.732;2024-03-08T03:40:31;0.20;99.90
33831;DHT22;20137;48.834;8.732;2024-03-08T03:42:57;0.10;99.90
33831;DHT22;20137;48.834;8.732;2024-03-08T03:45:23;0.10;99.90
33831;DHT22;20137;48.834;8.732;2024-03-08T03:47:49;0.10;99.90
33831;DHT22;20137;48.834;8.732;2024-03-08T03:50:15;0.10;99.90
33831;DHT22;20137;48.834;8.732;2024-03-08T03:52:41;0.10;99.90
33831;DHT22;20137;48.834;8.732;2024-03-08T03:55:08;0.10;99.90
33831;DHT22;20137;48.834;8.732;2024-03-08T03:57:34;0.20;99.90
33831;DHT22;20137;48.834;8.732;2024-03-08T03:59:59;0.10;99.90
33831;DHT22;20137;48.834;8.732;2024-03-08T04:02:25;0.10;99.90
33831;DHT22;20137;48.834;8.732;2024-03-08T04:04:52;0.10;99.90
33831;DHT22;20137;48.834;8.732;2024-03-08T04:07:18;0.00;99.90
33831;DHT22;20137;48.834;8.732;2024-03-08T04:09:43;0.00;99.90
33831;DHT22;20137;48.834;8.732;2024-03-08T04:12:09;0.00;99.90
33831;DHT22;20137;48.834;8.732;2024-03-08T04:14:35;-0.10;99.90
33831;DHT22;20137;48.834;8.732;2024-03-08T04:17:02;-0.10;99.90
33831;DHT22;20137;48.834;8.732;2024-03-08T04:19:27;0.00;99.90
33831;DHT22;20137;48.834;8.732;2024-03-08T04:21:53;-0.10;99.90
33831;DHT22;20137;48.834;8.732;2024-03-08T04:24:19;0.00;99.90
33831;DHT22;20137;48.834;8.732;2024-03-08T04:26:46;-0.10;99.90
33831;DHT22;20137;48.834;8.732;2024-03-08T04:29:12;0.00;99.90
33831;DHT22;20137;48.834;8.732;2024-03-08T04:31:40;-0.10;99.90
33831;DHT22;20137;48.834;8.732;2024-03-08T04:34:05;0.00;99.90
33831;DHT22;20137;48.834;8.732;2024-03-08T04:36:31;-0.10;99.90
33831;DHT22;20137;48.834;8.732;2024-03-08T04:38:57;-0.10;99.90
33831;DHT22;20137;48.834;8.732;2024-03-08T04:41:23;-0.20;99.90
33831;DHT22;20137;48.834;8.732;2024-03-08T04:43:49;-0.20;99.90
33831;DHT22;20137;48.834;8.732;2024-03-08T04:46:15;-0.30;99.90
33831;DHT22;20137;48.834;8.732;2024-03-08T04:48:41;-0.30;99.90
33831;DHT22;20137;48.834;8.732;2024-03-08T04:51:09;-0.30;99.90
33831;DHT22;20137;48.834;8.732;2024-03-08T04:53:35;-0.30;99.90
33831;DHT22;20137;48.834;8.732;2024-03-08T04:56:00;-0.30;99.90
33831;DHT22;20137;48.834;8.732;2024-03-08T04:58:37;-0.40;99.90
33831;DHT22;20137;48.834;8.732;2024-03-08T05:01:02;-0.40;99.90
33831;DHT22;20137;48.834;8.732;2024-03-08T05:03:28;-0.50;99.90
33831;DHT22;20137;48.834;8.732;2024-03-08T05:05:55;-0.50;99.90
33831;DHT22;20137;48.834;8.732;2024-03-08T05:08:21;-0.50;99.90
33831;DHT22;20137;48.834;8.732;2024-03-08T05:10:47;-0.30;99.90
33831;DHT22;20137;48.834;8.732;2024-03-08T05:13:13;-0.50;99.90
33831;DHT22;20137;48.834;8.732;2024-03-08T05:15:38;-0.50;99.90
33831;DHT22;20137;48.834;8.732;2024-03-08T05:18:04;-0.50;99.90
33831;DHT22;20137;48.834;8.732;2024-03-08T05:20:30;-0.50;99.90
33831;DHT22;20137;48.834;8.732;2024-03-08T05:22:56;-0.50;99.90
33831;DHT22;20137;48.834;8.732;2024-03-08T05:25:26;-0.50;99.90
33831;DHT22;20137;48.834;8.732;2024-03-08T05:27:52;-0.50;99.90
33831;DHT22;20137;48.834;8.732;2024-03-08T05:30:17;-0.60;99.90
33831;DHT22;20137;48.834;8.732;2024-03-08T05:32:43;-0.50;99.90
33831;DHT22;20137;48.834;8.732;2024-03-08T05:35:11;-0.60;99.90
33831;DHT22;20137;48.834;8.732;2024-03-08T05:37:38;-0.60;99.90
33831;DHT22;20137;48.834;8.732;2024-03-08T05:40:05;-0.60;99.90
33831;DHT22;20137;48.834;8.732;2024-03-08T05:42:34;-0.60;99.90
33831;DHT22;20137;48.834;8.732;2024-03-08T05:45:01;-0.40;99.90
33831;DHT22;20137;48.834;8.732;2024-03-08T05:47:27;-0.50;99.90
33831;DHT22;20137;48.834;8.732;2024-03-08T05:49:52;-0.50;99.90
33831;DHT22;20137;48.834;8.732;2024-03-08T05:52:19;-0.50;99.90
33831;DHT22;20137;48.834;8.732;2024-03-08T05:54:44;-0.50;99.90
33831;DHT22;20137;48.834;8.732;2024-03-08T05:57:11;-0.20;99.90
33831;DHT22;20137;48.834;8.732;2024-03-08T05:59:37;-0.50;99.90
33831;DHT22;20137;48.834;8.732;2024-03-08T06:02:02;-0.60;99.90
33831;DHT22;20137;48.834;8.732;2024-03-08T06:04:29;-0.50;99.90
33831;DHT22;20137;48.834;8.732;2024-03-08T06:06:55;-0.40;99.90
33831;DHT22;20137;48.834;8.732;2024-03-08T06:09:22;-0.50;99.90
33831;DHT22;20137;48.834;8.732;2024-03-08T06:11:49;-0.50;99.90
33831;DHT22;20137;48.834;8.732;2024-03-08T06:14:15;-0.50;99.90
33831;DHT22;20137;48.834;8.732;2024-03-08T06:16:44;-0.50;99.90
33831;DHT22;20137;48.834;8.732;2024-03-08T06:19:10;-0.50;99.90
33831;DHT22;20137;48.834;8.732;2024-03-08T06:21:37;-0.50;99.90
33831;DHT22;20137;48.834;8.732;2024-03-08T06:24:03;-0.50;99.90
33831;DHT22;20137;48.834;8.732;2024-03-08T06:26:29;-0.40;99.90
33831;DHT22;20137;48.834;8.732;2024-03-08T06:28:55;-0.30;99.90
33831;DHT22;20137;48.834;8.732;2024-03-08T06:31:20;-0.40;99.90
33831;DHT22;20137;48.834;8.732;2024-03-08T06:33:46;-0.20;99.90
33831;DHT22;20137;48.834;8.732;2024-03-08T06:36:16;-0.20;99.90
33831;DHT22;20137;48.834;8.732;2024-03-08T06:38:47;-0.20;99.90
33831;DHT22;20137;48.834;8.732;2024-03-08T06:41:12;-0.20;99.90
33831;DHT22;20137;48.834;8.732;2024-03-08T06:43:45;-0.10;99.90
33831;DHT22;20137;48.834;8.732;2024-03-08T06:46:11;0.00;99.90
33831;DHT22;20137;48.834;8.732;2024-03-08T06:48:41;0.20;99.90
33831;DHT22;20137;48.834;8.732;2024-03-08T06:51:07;0.10;99.90
33831;DHT22;20137;48.834;8.732;2024-03-08T06:53:32;0.20;99.90
33831;DHT22;20137;48.834;8.732;2024-03-08T06:56:01;0.30;99.90
33831;DHT22;20137;48.834;8.732;2024-03-08T06:58:27;0.40;99.90
33831;DHT22;20137;48.834;8.732;2024-03-08T07:00:53;0.50;99.90
33831;DHT22;20137;48.834;8.732;2024-03-08T07:03:19;0.70;99.90
33831;DHT22;20137;48.834;8.732;2024-03-08T07:05:45;0.80;99.90
33831;DHT22;20137;48.834;8.732;2024-03-08T07:08:10;0.90;99.90
33831;DHT22;20137;48.834;8.732;2024-03-08T07:10:39;1.00;99.90
33831;DHT22;20137;48.834;8.732;2024-03-08T07:13:07;1.00;99.90
33831;DHT22;20137;48.834;8.732;2024-03-08T07:15:33;1.10;99.90
33831;DHT22;20137;48.834;8.732;2024-03-08T07:17:59;1.50;99.90
33831;DHT22;20137;48.834;8.732;2024-03-08T07:20:25;1.20;99.90
33831;DHT22;20137;48.834;8.732;2024-03-08T07:22:51;1.20;99.90
33831;DHT22;20137;48.834;8.732;2024-03-08T07:25:17;1.40;99.90
33831;DHT22;20137;48.834;8.732;2024-03-08T07:27:55;1.40;99.90
33831;DHT22;20137;48.834;8.732;2024-03-08T07:30:23;1.50;99.90
33831;DHT22;20137;48.834;8.732;2024-03-08T07:33:07;1.50;99.90
33831;DHT22;20137;48.834;8.732;2024-03-08T07:35:35;1.60;99.90
33831;DHT22;20137;48.834;8.732;2024-03-08T07:38:06;1.70;99.90
33831;DHT22;20137;48.834;8.732;2024-03-08T07:40:41;1.70;99.90
33831;DHT22;20137;48.834;8.732;2024-03-08T07:43:10;1.80;99.90
33831;DHT22;20137;48.834;8.732;2024-03-08T07:45:37;1.90;99.90
33831;DHT22;20137;48.834;8.732;2024-03-08T07:48:03;1.90;99.90
33831;DHT22;20137;48.834;8.732;2024-03-08T07:50:29;2.00;99.90
33831;DHT22;20137;48.834;8.732;2024-03-08T07:52:55;2.10;99.90
33831;DHT22;20137;48.834;8.732;2024-03-08T07:55:20;2.00;99.90
33831;DHT22;20137;48.834;8.732;2024-03-08T07:57:49;2.20;99.90
33831;DHT22;20137;48.834;8.732;2024-03-08T08:00:15;2.10;99.90
33831;DHT22;20137;48.834;8.732;2024-03-08T08:02:46;2.20;99.90
33831;DHT22;20137;48.834;8.732;2024-03-08T08:05:12;2.20;99.90
33831;DHT22;20137;48.834;8.732;2024-03-08T08:07:39;2.20;99.90
33831;DHT22;20137;48.834;8.732;2024-03-08T08:10:06;2.30;99.90
33831;DHT22;20137;48.834;8.732;2024-03-08T08:12:32;2.30;99.90
33831;DHT22;20137;48.834;8.732;2024-03-08T08:15:00;2.30;99.90
33831;DHT22;20137;48.834;8.732;2024-03-08T08:17:25;2.40;99.90
33831;DHT22;20137;48.834;8.732;2024-03-08T08:19:51;2.40;99.90
33831;DHT22;20137;48.834;8.732;2024-03-08T08:22:17;2.60;99.90
33831;DHT22;20137;48.834;8.732;2024-03-08T08:24:43;2.60;99.90
33831;DHT22;20137;48.834;8.732;2024-03-08T08:27:09;2.60;99.90
33831;DHT22;20137;48.834;8.732;2024-03-08T08:29:37;2.80;99.90
33831;DHT22;20137;48.834;8.732;2024-03-08T08:32:03;2.60;99.90
33831;DHT22;20137;48.834;8.732;2024-03-08T08:34:29;2.70;99.90
33831;DHT22;20137;48.834;8.732;2024-03-08T08:36:55;2.80;99.90
33831;DHT22;20137;48.834;8.732;2024-03-08T08:39:21;2.80;99.90
33831;DHT22;20137;48.834;8.732;2024-03-08T08:41:48;2.80;99.90
33831;DHT22;20137;48.834;8.732;2024-03-08T08:44:14;2.80;99.90
33831;DHT22;20137;48.834;8.732;2024-03-08T08:46:40;2.90;99.90
33831;DHT22;20137;48.834;8.732;2024-03-08T08:49:06;3.00;99.90
33831;DHT22;20137;48.834;8.732;2024-03-08T08:51:36;2.90;99.90
33831;DHT22;20137;48.834;8.732;2024-03-08T08:54:02;3.00;99.90
33831;DHT22;20137;48.834;8.732;2024-03-08T08:56:27;3.10;99.90
33831;DHT22;20137;48.834;8.732;2024-03-08T08:58:54;3.10;99.90
33831;DHT22;20137;48.834;8.732;2024-03-08T09:01:20;3.20;99.90
33831;DHT22;20137;48.834;8.732;2024-03-08T09:03:46;3.30;99.90
33831;DHT22;20137;48.834;8.732;2024-03-08T09:06:16;3.20;99.90
33831;DHT22;20137;48.834;8.732;2024-03-08T09:08:42;3.20;99.90
33831;DHT22;20137;48.834;8.732;2024-03-08T09:11:09;3.10;99.90
33831;DHT22;20137;48.834;8.732;2024-03-08T09:13:35;3.20;99.90
33831;DHT22;20137;48.834;8.732;2024-03-08T09:16:02;3.50;99.90
33831;DHT22;20137;48.834;8.732;2024-03-08T09:18:28;3.20;99.90
33831;DHT22;20137;48.834;8.732;2024-03-08T09:20:54;3.30;99.90
33831;DHT22;20137;48.834;8.732;2024-03-08T09:23:20;3.40;99.90
33831;DHT22;20137;48.834;8.732;2024-03-08T09:25:46;3.30;99.90
33831;DHT22;20137;48.834;8.732;2024-03-08T09:28:12;3.40;99.90
33831;DHT22;20137;48.834;8.732;2024-03-08T09:30:39;3.50;99.90
33831;DHT22;20137;48.834;8.732;2024-03-08T09:33:05;3.60;99.90
33831;DHT22;20137;48.834;8.732;2024-03-08T09:35:31;3.60;99.90
33831;DHT22;20137;48.834;8.732;2024-03-08T09:37:57;3.70;99.90
33831;DHT22;20137;48.834;8.732;2024-03-08T09:40:23;3.80;99.90
33831;DHT22;20137;48.834;8.732;2024-03-08T09:42:51;3.80;99.90
33831;DHT22;20137;48.834;8.732;2024-03-08T09:45:20;4.00;99.90
33831;DHT22;20137;48.834;8.732;2024-03-08T09:47:47;3.80;99.90
33831;DHT22;20137;48.834;8.732;2024-03-08T09:50:14;3.90;99.90
33831;DHT22;20137;48.834;8.732;2024-03-08T09:52:43;4.00;99.90
33831;DHT22;20137;48.834;8.732;2024-03-08T09:55:12;3.90;99.90
33831;DHT22;20137;48.834;8.732;2024-03-08T09:57:38;4.20;99.90
33831;DHT22;20137;48.834;8.732;2024-03-08T10:00:05;4.10;99.90
33831;DHT22;20137;48.834;8.732;2024-03-08T10:02:47;4.10;99.90
33831;DHT22;20137;48.834;8.732;2024-03-08T10:05:13;4.20;99.90
33831;DHT22;20137;48.834;8.732;2024-03-08T10:07:39;4.30;99.90
33831;DHT22;20137;48.834;8.732;2024-03-08T10:10:05;4.70;99.90
33831;DHT22;20137;48.834;8.732;2024-03-08T10:12:34;4.50;99.90
33831;DHT22;20137;48.834;8.732;2024-03-08T10:15:00;4.40;99.90
33831;DHT22;20137;48.834;8.732;2024-03-08T10:17:26;4.40;99.90
33831;DHT22;20137;48.834;8.732;2024-03-08T10:19:52;4.40;99.90
33831;DHT22;20137;48.834;8.732;2024-03-08T10:22:19;4.60;99.90
33831;DHT22;20137;48.834;8.732;2024-03-08T10:24:47;4.70;99.90
33831;DHT22;20137;48.834;8.732;2024-03-08T10:27:16;4.60;99.90
33831;DHT22;20137;48.834;8.732;2024-03-08T10:29:41;4.60;99.90
33831;DHT22;20137;48.834;8.732;2024-03-08T10:32:10;4.80;99.90
33831;DHT22;20137;48.834;8.732;2024-03-08T10:34:36;4.70;99.90
33831;DHT22;20137;48.834;8.732;2024-03-08T10:37:05;4.90;99.90
33831;DHT22;20137;48.834;8.732;2024-03-08T10:39:36;4.90;99.90
33831;DHT22;20137;48.834;8.732;2024-03-08T10:42:03;5.00;99.90
33831;DHT22;20137;48.834;8.732;2024-03-08T10:50:26;5.00;99.90
33831;DHT22;20137;48.834;8.732;2024-03-08T10:52:52;5.20;99.90
33831;DHT22;20137;48.834;8.732;2024-03-08T10:55:19;5.00;99.90
33831;DHT22;20137;48.834;8.732;2024-03-08T10:57:46;5.00;99.90
33831;DHT22;20137;48.834;8.732;2024-03-08T11:00:16;5.10;99.90
33831;DHT22;20137;48.834;8.732;2024-03-08T11:02:44;4.90;99.90
33831;DHT22;20137;48.834;8.732;2024-03-08T11:05:11;4.90;99.90
33831;DHT22;20137;48.834;8.732;2024-03-08T11:07:42;5.00;99.90
33831;DHT22;20137;48.834;8.732;2024-03-08T11:10:19;5.00;99.90
33831;DHT22;20137;48.834;8.732;2024-03-08T11:12:45;5.30;99.90
33831;DHT22;20137;48.834;8.732;2024-03-08T11:15:13;5.20;99.90
33831;DHT22;20137;48.834;8.732;2024-03-08T11:17:40;5.10;99.90
33831;DHT22;20137;48.834;8.732;2024-03-08T11:20:13;4.90;99.90
33831;DHT22;20137;48.834;8.732;2024-03-08T11:22:48;5.10;99.90
33831;DHT22;20137;48.834;8.732;2024-03-08T11:25:37;5.10;99.90
33831;DHT22;20137;48.834;8.732;2024-03-08T11:28:22;5.10;99.90
33831;DHT22;20137;48.834;8.732;2024-03-08T11:33:26;5.60;99.90
33831;DHT22;20137;48.834;8.732;2024-03-08T11:35:57;5.50;99.90
33831;DHT22;20137;48.834;8.732;2024-03-08T11:38:23;5.50;99.90
33831;DHT22;20137;48.834;8.732;2024-03-08T11:40:50;5.30;99.90
33831;DHT22;20137;48.834;8.732;2024-03-08T11:43:16;5.30;99.90
33831;DHT22;20137;48.834;8.732;2024-03-08T11:45:42;5.50;99.90
33831;DHT22;20137;48.834;8.732;2024-03-08T11:48:07;5.40;99.90
33831;DHT22;20137;48.834;8.732;2024-03-08T11:50:34;5.50;99.90
33831;DHT22;20137;48.834;8.732;2024-03-08T11:53:03;5.50;99.90
33831;DHT22;20137;48.834;8.732;2024-03-08T11:55:33;5.50;99.90
33831;DHT22;20137;48.834;8.732;2024-03-08T11:58:04;5.50;99.90
33831;DHT22;20137;48.834;8.732;2024-03-08T12:00:31;5.70;99.90
33831;DHT22;20137;48.834;8.732;2024-03-08T12:03:07;5.90;99.90
33831;DHT22;20137;48.834;8.732;2024-03-08T12:05:35;5.80;99.90
33831;DHT22;20137;48.834;8.732;2024-03-08T12:08:04;6.10;99.90
33831;DHT22;20137;48.834;8.732;2024-03-08T12:10:38;6.30;99.90
33831;DHT22;20137;48.834;8.732;2024-03-08T12:13:04;6.60;99.90
33831;DHT22;20137;48.834;8.732;2024-03-08T12:15:39;6.60;99.90
33831;DHT22;20137;48.834;8.732;2024-03-08T12:18:05;6.70;99.90
33831;DHT22;20137;48.834;8.732;2024-03-08T12:20:32;6.90;99.90
33831;DHT22;20137;48.834;8.732;2024-03-08T12:22:58;7.20;99.90
33831;DHT22;20137;48.834;8.732;2024-03-08T12:25:31;7.30;99.90
33831;DHT22;20137;48.834;8.732;2024-03-08T12:28:06;7.60;99.90
33831;DHT22;20137;48.834;8.732;2024-03-08T12:30:32;7.60;99.90
33831;DHT22;20137;48.834;8.732;2024-03-08T12:33:00;7.30;99.90
33831;DHT22;20137;48.834;8.732;2024-03-08T12:35:30;7.50;99.90
33831;DHT22;20137;48.834;8.732;2024-03-08T12:37:59;7.70;99.90
33831;DHT22;20137;48.834;8.732;2024-03-08T12:40:27;7.80;99.90
33831;DHT22;20137;48.834;8.732;2024-03-08T12:42:57;7.80;99.90
33831;DHT22;20137;48.834;8.732;2024-03-08T12:45:26;7.80;99.90
33831;DHT22;20137;48.834;8.732;2024-03-08T12:47:53;7.80;99.90
33831;DHT22;20137;48.834;8.732;2024-03-08T12:50:20;7.60;99.90
33831;DHT22;20137;48.834;8.732;2024-03-08T12:52:47;7.30;99.90
33831;DHT22;20137;48.834;8.732;2024-03-08T12:55:14;7.10;99.90
33831;DHT22;20137;48.834;8.732;2024-03-08T12:57:42;6.90;99.90
33831;DHT22;20137;48.834;8.732;2024-03-08T13:00:08;6.80;99.90
33831;DHT22;20137;48.834;8.732;2024-03-08T13:02:39;6.80;99.90
33831;DHT22;20137;48.834;8.732;2024-03-08T13:05:05;6.80;99.90
33831;DHT22;20137;48.834;8.732;2024-03-08T13:07:31;6.60;99.90
33831;DHT22;20137;48.834;8.732;2024-03-08T13:09:57;6.50;99.90
33831;DHT22;20137;48.834;8.732;2024-03-08T13:12:25;6.40;99.90
33831;DHT22;20137;48.834;8.732;2024-03-08T13:14:51;6.30;99.90
33831;DHT22;20137;48.834;8.732;2024-03-08T13:17:17;6.30;99.90
33831;DHT22;20137;48.834;8.732;2024-03-08T13:19:46;6.30;99.90
33831;DHT22;20137;48.834;8.732;2024-03-08T13:22:12;6.20;99.90
33831;DHT22;20137;48.834;8.732;2024-03-08T13:24:44;6.30;99.90
33831;DHT22;20137;48.834;8.732;2024-03-08T13:27:10;6.50;99.90
33831;DHT22;20137;48.834;8.732;2024-03-08T13:29:53;6.60;99.90
33831;DHT22;20137;48.834;8.732;2024-03-08T13:32:19;6.70;99.90
33831;DHT22;20137;48.834;8.732;2024-03-08T13:34:46;6.80;99.90
33831;DHT22;20137;48.834;8.732;2024-03-08T13:37:13;7.00;99.90
33831;DHT22;20137;48.834;8.732;2024-03-08T13:39:41;7.00;99.90
33831;DHT22;20137;48.834;8.732;2024-03-08T13:42:12;7.00;99.90
33831;DHT22;20137;48.834;8.732;2024-03-08T13:44:48;7.10;99.90
33831;DHT22;20137;48.834;8.732;2024-03-08T13:47:16;7.00;99.90
33831;DHT22;20137;48.834;8.732;2024-03-08T13:49:45;7.10;99.90
33831;DHT22;20137;48.834;8.732;2024-03-08T13:52:11;7.00;99.90
33831;DHT22;20137;48.834;8.732;2024-03-08T13:54:40;7.10;99.90
33831;DHT22;20137;48.834;8.732;2024-03-08T13:57:06;7.10;99.90
33831;DHT22;20137;48.834;8.732;2024-03-08T13:59:33;7.10;99.90
33831;DHT22;20137;48.834;8.732;2024-03-08T14:02:01;7.30;99.90
33831;DHT22;20137;48.834;8.732;2024-03-08T14:04:28;7.40;99.90
33831;DHT22;20137;48.834;8.732;2024-03-08T14:06:54;7.60;99.90
33831;DHT22;20137;48.834;8.732;2024-03-08T14:09:25;7.50;99.90
33831;DHT22;20137;48.834;8.732;2024-03-08T14:11:57;7.60;99.90
33831;DHT22;20137;48.834;8.732;2024-03-08T14:14:24;7.60;99.90
33831;DHT22;20137;48.834;8.732;2024-03-08T14:16:50;7.90;99.90
33831;DHT22;20137;48.834;8.732;2024-03-08T14:19:20;8.00;99.90
33831;DHT22;20137;48.834;8.732;2024-03-08T14:21:46;7.90;99.90
33831;DHT22;20137;48.834;8.732;2024-03-08T14:24:14;7.90;99.90
33831;DHT22;20137;48.834;8.732;2024-03-08T14:26:41;7.70;99.90
33831;DHT22;20137;48.834;8.732;2024-03-08T14:29:07;7.80;99.90
33831;DHT22;20137;48.834;8.732;2024-03-08T14:31:38;7.60;99.90
33831;DHT22;20137;48.834;8.732;2024-03-08T14:34:05;7.70;99.90
33831;DHT22;20137;48.834;8.732;2024-03-08T14:36:33;7.60;99.90
33831;DHT22;20137;48.834;8.732;2024-03-08T14:38:59;7.50;99.90
33831;DHT22;20137;48.834;8.732;2024-03-08T14:41:24;7.50;99.90
33831;DHT22;20137;48.834;8.732;2024-03-08T14:43:50;7.40;99.90
33831;DHT22;20137;48.834;8.732;2024-03-08T14:46:18;7.40;99.90
33831;DHT22;20137;48.834;8.732;2024-03-08T14:48:55;7.50;99.90
33831;DHT22;20137;48.834;8.732;2024-03-08T14:51:24;7.50;99.90
33831;DHT22;20137;48.834;8.732;2024-03-08T14:53:54;7.50;99.90
33831;DHT22;20137;48.834;8.732;2024-03-08T14:56:20;7.60;99.90
33831;DHT22;20137;48.834;8.732;2024-03-08T14:58:46;7.70;99.90
33831;DHT22;20137;48.834;8.732;2024-03-08T15:01:15;7.70;99.90
33831;DHT22;20137;48.834;8.732;2024-03-08T15:03:44;7.60;99.90
33831;DHT22;20137;48.834;8.732;2024-03-08T15:06:10;7.60;99.90
33831;DHT22;20137;48.834;8.732;2024-03-08T15:08:36;7.60;99.90
33831;DHT22;20137;48.834;8.732;2024-03-08T15:11:03;7.70;99.90
33831;DHT22;20137;48.834;8.732;2024-03-08T15:13:30;7.70;99.90
33831;DHT22;20137;48.834;8.732;2024-03-08T15:16:10;7.80;99.90
33831;DHT22;20137;48.834;8.732;2024-03-08T15:18:42;7.80;99.90
33831;DHT22;20137;48.834;8.732;2024-03-08T15:21:12;7.80;99.90
33831;DHT22;20137;48.834;8.732;2024-03-08T15:23:43;7.80;99.90
33831;DHT22;20137;48.834;8.732;2024-03-08T15:26:15;7.80;99.90
33831;DHT22;20137;48.834;8.732;2024-03-08T15:28:41;7.70;99.90
33831;DHT22;20137;48.834;8.732;2024-03-08T15:31:07;7.70;99.90
33831;DHT22;20137;48.834;8.732;2024-03-08T15:33:33;7.70;99.90
33831;DHT22;20137;48.834;8.732;2024-03-08T15:36:00;7.70;99.90
33831;DHT22;20137;48.834;8.732;2024-03-08T15:38:35;7.80;99.90
33831;DHT22;20137;48.834;8.732;2024-03-08T15:41:02;7.80;99.90
33831;DHT22;20137;48.834;8.732;2024-03-08T15:43:33;7.70;99.90
33831;DHT22;20137;48.834;8.732;2024-03-08T15:46:00;7.60;99.90
33831;DHT22;20137;48.834;8.732;2024-03-08T15:48:27;7.70;99.90
33831;DHT22;20137;48.834;8.732;2024-03-08T15:50:53;7.80;99.90
33831;DHT22;20137;48.834;8.732;2024-03-08T15:53:18;7.70;99.90